createdAt,value
2022-11-30T00:01:21.153Z,90.18
2022-11-30T00:03:48.724Z,91.80
2022-11-30T00:06:22.768Z,99.33
2022-11-30T00:08:57.322Z,84.90
2022-11-30T00:11:26.034Z,93.70
2022-11-30T00:13:53.008Z,91.45
2022-11-30T00:16:19.850Z,88.30
2022-11-30T00:18:46.578Z,92.30
2022-11-30T00:21:14.756Z,87.18
2022-11-30T00:23:43.692Z,94.47
2022-11-30T00:26:13.184Z,87.83
2022-11-30T00:28:40.205Z,89.32
2022-11-30T00:31:11.013Z,97.80
2022-11-30T00:33:38.542Z,86.55
2022-11-30T00:36:12.401Z,85.13
2022-11-30T00:38:39.242Z,97.30
2022-11-30T00:41:06.689Z,89.25
2022-11-30T00:43:33.449Z,92.55
2022-11-30T00:46:00.292Z,91.55
2022-11-30T00:48:26.927Z,99.13
2022-11-30T00:50:53.692Z,91.20
2022-11-30T00:53:21.518Z,100.70
2022-11-30T00:55:48.631Z,97.80
2022-11-30T00:58:15.268Z,86.20
2022-11-30T01:00:42.225Z,88.70
2022-11-30T01:03:09.402Z,81.93
2022-11-30T01:05:36.515Z,86.53
2022-11-30T01:08:05.242Z,92.65
2022-11-30T01:10:32.781Z,91.20
2022-11-30T01:12:59.374Z,87.27
2022-11-30T01:15:26.209Z,89.75
2022-11-30T01:17:53.036Z,88.35
2022-11-30T01:20:19.754Z,100.53
2022-11-30T01:22:46.374Z,93.25
2022-11-30T01:25:13.171Z,92.23
2022-11-30T01:27:39.941Z,98.40
2022-11-30T01:30:07.232Z,103.60
2022-11-30T01:32:34.211Z,92.83
2022-11-30T01:35:00.827Z,94.57
2022-11-30T01:37:29.977Z,91.95
2022-11-30T01:39:56.845Z,102.88
2022-11-30T01:42:23.866Z,95.93
2022-11-30T01:44:59.145Z,103.40
2022-11-30T01:47:30.681Z,101.10
2022-11-30T01:50:08.547Z,106.67
2022-11-30T01:52:43.423Z,100.32
2022-11-30T01:55:26.920Z,101.95
2022-11-30T01:58:09.481Z,89.37
2022-11-30T02:00:36.081Z,105.53
2022-11-30T02:03:28.935Z,96.40
2022-11-30T02:05:55.647Z,114.13
2022-11-30T02:08:22.604Z,99.27
2022-11-30T02:10:58.336Z,95.82
2022-11-30T02:13:40.460Z,97.15
2022-11-30T02:16:13.048Z,91.10
2022-11-30T02:18:58.470Z,98.05
2022-11-30T02:21:54.816Z,95.73
2022-11-30T02:24:40.532Z,102.68
2022-11-30T02:27:42.756Z,103.30
2022-11-30T02:30:16.488Z,97.20
2022-11-30T02:32:48.426Z,100.97
2022-11-30T02:35:18.846Z,87.85
2022-11-30T02:37:46.795Z,95.77
2022-11-30T02:40:20.209Z,93.78
2022-11-30T02:42:50.350Z,89.90
2022-11-30T02:45:19.313Z,88.43
2022-11-30T02:47:59.341Z,101.93
2022-11-30T02:50:30.608Z,93.25
2022-11-30T02:52:57.780Z,94.25
2022-11-30T02:55:24.522Z,87.80
2022-11-30T02:57:51.283Z,88.03
2022-11-30T03:00:18.482Z,86.30
2022-11-30T03:02:45.099Z,86.53
2022-11-30T03:05:11.846Z,83.97
2022-11-30T03:07:38.941Z,85.33
2022-11-30T03:10:07.009Z,88.23
2022-11-30T03:12:34.015Z,87.13
2022-11-30T03:15:00.756Z,89.22
2022-11-30T03:17:27.654Z,85.72
2022-11-30T03:19:54.352Z,79.15
2022-11-30T03:22:20.990Z,88.75
2022-11-30T03:24:47.908Z,78.13
2022-11-30T03:27:14.917Z,88.03
2022-11-30T03:29:41.594Z,81.43
2022-11-30T03:32:08.182Z,86.10
2022-11-30T03:34:34.868Z,82.13
2022-11-30T03:37:01.522Z,87.87
2022-11-30T03:39:28.283Z,83.97
2022-11-30T03:41:55.002Z,88.50
2022-11-30T03:44:21.676Z,86.43
2022-11-30T03:46:48.436Z,94.18
2022-11-30T03:49:15.111Z,94.28
2022-11-30T03:51:41.681Z,96.27
2022-11-30T03:54:08.347Z,98.20
2022-11-30T03:56:34.966Z,95.50
2022-11-30T03:59:01.548Z,93.63
2022-11-30T04:01:28.434Z,106.93
2022-11-30T04:03:55.220Z,108.87
2022-11-30T04:06:21.913Z,106.67
2022-11-30T04:08:48.583Z,106.38
2022-11-30T04:11:15.542Z,111.87
2022-11-30T04:13:42.650Z,104.23
2022-11-30T04:16:09.957Z,100.15
2022-11-30T04:18:37.693Z,106.20
2022-11-30T04:21:06.658Z,104.35
2022-11-30T04:23:35.791Z,90.05
2022-11-30T04:26:07.915Z,102.97
2022-11-30T04:28:35.203Z,93.38
2022-11-30T04:31:02.758Z,96.20
2022-11-30T04:33:29.927Z,94.25
2022-11-30T04:35:59.044Z,87.22
2022-11-30T04:38:26.562Z,83.20
2022-11-30T04:40:53.950Z,92.72
2022-11-30T04:43:20.744Z,92.63
2022-11-30T04:45:47.872Z,84.33
2022-11-30T04:48:15.893Z,83.38
2022-11-30T04:50:42.643Z,91.05
2022-11-30T04:53:09.686Z,97.13
2022-11-30T04:55:38.273Z,91.45
2022-11-30T04:58:05.605Z,94.80
2022-11-30T05:00:33.133Z,94.10
2022-11-30T05:02:59.817Z,88.75
2022-11-30T05:05:26.475Z,95.68
2022-11-30T05:07:58.511Z,94.57
2022-11-30T05:10:26.521Z,93.82
2022-11-30T05:12:53.211Z,97.30
2022-11-30T05:15:20.140Z,99.47
2022-11-30T05:17:46.808Z,90.38
2022-11-30T05:20:13.914Z,89.15
2022-11-30T05:22:40.526Z,99.50
2022-11-30T05:25:07.953Z,93.28
2022-11-30T05:27:35.287Z,97.75
2022-11-30T05:30:02.579Z,90.30
2022-11-30T05:32:29.180Z,97.68
2022-11-30T05:34:55.971Z,91.88
2022-11-30T05:37:22.637Z,104.63
2022-11-30T05:39:49.241Z,100.25
2022-11-30T05:42:15.819Z,96.43
2022-11-30T05:44:43.026Z,99.20
2022-11-30T05:47:09.753Z,100.82
2022-11-30T05:49:36.421Z,102.15
2022-11-30T05:52:03.113Z,93.17
2022-11-30T05:54:29.702Z,100.03
2022-11-30T05:56:56.359Z,103.40
2022-11-30T05:59:23.617Z,103.23
2022-11-30T06:01:52.687Z,110.25
2022-11-30T06:04:20.033Z,103.80
2022-11-30T06:06:46.853Z,103.35
2022-11-30T06:09:13.429Z,96.03
2022-11-30T06:11:40.072Z,121.43
2022-11-30T06:14:06.743Z,118.07
2022-11-30T06:16:33.441Z,108.70
2022-11-30T06:19:00.082Z,114.43
2022-11-30T06:21:26.722Z,109.67
2022-11-30T06:23:53.276Z,124.43
2022-11-30T06:26:19.909Z,102.10
2022-11-30T06:28:48.377Z,116.80
2022-11-30T06:31:16.199Z,108.47
2022-11-30T06:33:43.113Z,114.07
2022-11-30T06:36:10.393Z,112.43
2022-11-30T06:38:37.237Z,112.03
2022-11-30T06:41:08.557Z,97.27
2022-11-30T06:43:36.691Z,110.28
2022-11-30T06:46:04.021Z,117.18
2022-11-30T06:48:30.722Z,118.65
2022-11-30T06:50:58.477Z,105.60
2022-11-30T06:53:25.385Z,98.60
2022-11-30T06:55:52.466Z,101.82
2022-11-30T06:58:19.296Z,98.50
2022-11-30T07:00:46.190Z,102.53
2022-11-30T07:03:14.683Z,101.00
2022-11-30T07:05:45.970Z,98.80
2022-11-30T07:08:14.218Z,100.90
2022-11-30T07:10:45.587Z,101.20
2022-11-30T07:13:13.877Z,89.97
2022-11-30T07:15:41.280Z,94.63
2022-11-30T07:18:08.776Z,99.63
2022-11-30T07:20:35.819Z,96.53
2022-11-30T07:23:22.737Z,95.67
2022-11-30T07:26:06.567Z,89.97
2022-11-30T07:28:34.851Z,95.23
2022-11-30T07:31:01.897Z,97.03
2022-11-30T07:33:28.541Z,97.03
2022-11-30T07:35:55.277Z,89.53
2022-11-30T07:38:21.852Z,84.10
2022-11-30T07:40:48.440Z,86.47
2022-11-30T07:43:15.669Z,92.13
2022-11-30T07:45:42.398Z,94.50
2022-11-30T07:48:09.762Z,92.78
2022-11-30T07:50:36.345Z,88.78
2022-11-30T07:53:02.943Z,87.50
2022-11-30T07:55:29.491Z,100.57
2022-11-30T07:57:56.089Z,95.17
2022-11-30T08:00:22.666Z,101.10
2022-11-30T08:02:50.699Z,86.80
2022-11-30T08:05:17.425Z,96.60
2022-11-30T08:07:45.765Z,95.47
2022-11-30T08:10:12.395Z,98.53
2022-11-30T08:12:39.004Z,104.30
2022-11-30T08:15:27.415Z,98.97
2022-11-30T08:17:55.168Z,101.60
2022-11-30T08:20:22.259Z,90.27
2022-11-30T08:22:49.193Z,92.82
2022-11-30T08:25:15.772Z,105.57
2022-11-30T08:27:42.310Z,104.00
2022-11-30T08:30:09.390Z,91.53
2022-11-30T08:32:35.933Z,93.43
2022-11-30T08:35:02.616Z,96.63
2022-11-30T08:37:29.163Z,97.90
2022-11-30T08:39:55.697Z,102.63
2022-11-30T08:42:22.320Z,98.45
2022-11-30T08:44:48.846Z,105.05
2022-11-30T08:47:15.451Z,99.72
2022-11-30T08:49:42.017Z,103.57
2022-11-30T08:52:17.404Z,113.80
2022-11-30T08:54:46.679Z,116.63
2022-11-30T08:57:18.457Z,110.38
2022-11-30T08:59:45.335Z,118.05
2022-11-30T09:02:14.452Z,110.50
2022-11-30T09:04:41.070Z,111.03
2022-11-30T09:07:09.424Z,107.78
2022-11-30T09:09:36.893Z,102.07
2022-11-30T09:12:03.740Z,110.90
2022-11-30T09:14:30.458Z,105.13
2022-11-30T09:16:57.004Z,107.35
2022-11-30T09:19:24.579Z,103.15
2022-11-30T09:21:52.443Z,104.27
2022-11-30T09:24:20.326Z,103.53
2022-11-30T09:26:47.101Z,103.72
2022-11-30T09:29:13.653Z,102.60
2022-11-30T09:31:40.223Z,102.20
2022-11-30T09:34:06.798Z,100.93
2022-11-30T09:36:33.977Z,96.13
2022-11-30T09:39:00.621Z,102.28
2022-11-30T09:41:54.462Z,95.43
2022-11-30T09:44:49.162Z,95.32
2022-11-30T09:47:37.913Z,90.90
2022-11-30T09:50:18.591Z,96.85
2022-11-30T09:52:52.201Z,99.68
2022-11-30T09:55:27.358Z,93.28
2022-11-30T09:57:58.295Z,98.47
2022-11-30T10:00:25.327Z,94.60
2022-11-30T10:02:57.364Z,94.20
2022-11-30T10:05:39.993Z,93.75
2022-11-30T10:08:30.309Z,92.20
2022-11-30T10:11:30.457Z,99.13
2022-11-30T10:14:16.098Z,94.10
2022-11-30T10:16:49.252Z,94.68
2022-11-30T10:19:45.066Z,86.10
2022-11-30T10:22:45.427Z,85.40
2022-11-30T10:25:13.796Z,87.00
2022-11-30T10:28:44.877Z,87.75
2022-11-30T10:31:03.789Z,90.35
2022-11-30T10:33:40.537Z,85.72
2022-11-30T10:36:15.413Z,82.03
2022-11-30T10:38:53.022Z,82.72
2022-11-30T10:41:28.697Z,83.85
2022-11-30T10:44:01.382Z,89.60
2022-11-30T10:46:32.700Z,78.28
2022-11-30T10:49:12.437Z,81.13
2022-11-30T10:51:42.182Z,82.25
2022-11-30T10:54:18.731Z,72.35
2022-11-30T10:56:46.043Z,76.85
2022-11-30T10:59:22.156Z,75.95
2022-11-30T11:01:48.857Z,79.78
2022-11-30T11:04:18.469Z,71.88
2022-11-30T11:06:55.341Z,78.95
2022-11-30T11:09:33.861Z,75.20
2022-11-30T11:12:22.449Z,72.88
2022-11-30T11:14:49.119Z,73.35
2022-11-30T11:17:18.652Z,70.97
2022-11-30T11:19:47.702Z,74.35
2022-11-30T11:22:21.367Z,73.68
2022-11-30T11:24:50.371Z,74.45
2022-11-30T11:27:24.967Z,70.22
2022-11-30T11:30:27.371Z,66.28
2022-11-30T11:33:04.948Z,67.68
2022-11-30T11:35:56.058Z,62.50
2022-11-30T11:38:46.249Z,63.28
2022-11-30T11:41:25.468Z,65.35
2022-11-30T11:44:09.327Z,61.35
2022-11-30T11:46:55.702Z,60.75
2022-11-30T11:49:36.751Z,60.28
2022-11-30T11:52:05.692Z,54.80
2022-11-30T11:54:34.990Z,54.15
2022-11-30T11:57:02.298Z,49.90
2022-11-30T11:59:45.447Z,54.78
2022-11-30T12:02:37.071Z,48.25
2022-11-30T12:05:15.499Z,47.70
2022-11-30T12:07:58.813Z,47.58
2022-11-30T12:13:23.320Z,49.30
2022-11-30T12:16:19.631Z,47.10
2022-11-30T12:19:01.364Z,43.45
2022-11-30T12:22:05.740Z,47.15
2022-11-30T12:25:06.751Z,45.03
2022-11-30T12:27:54.891Z,44.15
2022-11-30T12:30:28.458Z,39.40
2022-11-30T12:33:16.759Z,39.63
2022-11-30T12:35:58.728Z,37.35
2022-11-30T12:38:50.747Z,41.30
2022-11-30T12:41:23.258Z,41.20
2022-11-30T12:44:02.187Z,43.00
2022-11-30T12:47:02.734Z,38.80
2022-11-30T12:49:53.029Z,44.45
2022-11-30T12:52:47.583Z,51.58
2022-11-30T12:55:41.868Z,55.40
2022-11-30T12:58:34.576Z,55.42
2022-11-30T13:01:22.882Z,55.78
2022-11-30T13:04:20.198Z,61.03
2022-11-30T13:06:59.721Z,57.75
2022-11-30T13:09:43.772Z,53.60
2022-11-30T13:12:16.337Z,55.22
2022-11-30T13:14:43.376Z,48.97
2022-11-30T13:17:19.052Z,54.67
2022-11-30T13:20:09.487Z,46.67
2022-11-30T13:23:06.144Z,46.70
2022-11-30T13:26:09.009Z,50.10
2022-11-30T13:28:50.162Z,46.88
2022-11-30T13:31:55.978Z,43.70
2022-11-30T13:34:26.033Z,40.38
2022-11-30T13:37:02.092Z,48.92
2022-11-30T13:39:58.525Z,48.63
2022-11-30T13:42:34.248Z,44.83
2022-11-30T13:45:13.233Z,42.28
2022-11-30T13:47:43.439Z,42.85
2022-11-30T13:50:34.510Z,42.67
2022-11-30T13:53:06.941Z,45.80
2022-11-30T13:55:46.261Z,41.92
2022-11-30T13:58:15.611Z,42.35
2022-11-30T14:00:42.529Z,41.47
2022-11-30T14:03:21.249Z,48.35
2022-11-30T14:06:11.068Z,43.58
2022-11-30T14:08:38.795Z,48.30
2022-11-30T14:11:17.564Z,43.05
2022-11-30T14:13:44.791Z,51.33
2022-11-30T14:16:24.664Z,42.25
2022-11-30T14:18:51.500Z,40.78
2022-11-30T14:21:28.978Z,40.83
2022-11-30T14:24:14.050Z,38.08
2022-11-30T14:26:44.667Z,38.40
2022-11-30T14:29:16.824Z,41.20
2022-11-30T14:32:00.981Z,40.85
2022-11-30T14:34:37.112Z,42.78
2022-11-30T14:37:13.341Z,41.85
2022-11-30T14:39:45.760Z,46.40
2022-11-30T14:42:24.797Z,53.15
2022-11-30T14:44:51.746Z,49.20
2022-11-30T14:47:23.762Z,52.22
2022-11-30T14:49:52.858Z,50.88
2022-11-30T14:52:41.365Z,50.83
2022-11-30T14:55:14.156Z,50.83
2022-11-30T14:58:04.027Z,55.33
2022-11-30T15:00:39.443Z,51.13
2022-11-30T15:03:31.871Z,49.08
2022-11-30T15:06:03.739Z,56.15
2022-11-30T15:08:43.118Z,55.33
2022-11-30T15:11:12.308Z,52.83
2022-11-30T15:13:49.417Z,57.47
2022-11-30T15:16:20.719Z,52.47
2022-11-30T15:18:48.418Z,52.40
2022-11-30T15:21:22.245Z,54.35
2022-11-30T15:23:51.478Z,52.33
2022-11-30T15:26:32.187Z,50.15
2022-11-30T15:29:02.532Z,52.67
2022-11-30T15:31:35.859Z,49.38
2022-11-30T15:34:03.216Z,50.92
2022-11-30T15:36:38.179Z,50.03
2022-11-30T15:39:07.480Z,66.05
2022-11-30T15:41:35.422Z,61.30
2022-11-30T15:44:02.368Z,58.58
2022-11-30T15:46:34.837Z,60.67
2022-11-30T15:49:22.519Z,58.05
2022-11-30T15:52:14.412Z,56.97
2022-11-30T15:54:53.018Z,54.67
2022-11-30T15:57:20.452Z,65.82
2022-11-30T16:00:22.749Z,57.60
2022-11-30T16:02:49.479Z,58.67
2022-11-30T16:05:17.472Z,58.70
2022-11-30T16:07:57.277Z,61.35
2022-11-30T16:10:27.342Z,54.35
2022-11-30T16:12:55.481Z,60.08
2022-11-30T16:15:30.548Z,58.70
2022-11-30T16:18:22.940Z,62.00
2022-11-30T16:21:01.289Z,54.35
2022-11-30T16:23:28.571Z,56.40
2022-11-30T16:25:55.586Z,61.30
2022-11-30T16:28:23.996Z,59.28
2022-11-30T16:30:51.227Z,59.58
2022-11-30T16:33:23.414Z,59.38
2022-11-30T16:36:20.255Z,56.47
2022-11-30T16:38:49.216Z,58.58
2022-11-30T16:41:21.162Z,54.28
2022-11-30T16:43:50.658Z,59.85
2022-11-30T16:46:20.292Z,58.10
2022-11-30T16:48:47.694Z,57.65
2022-11-30T16:51:27.078Z,58.13
2022-11-30T16:53:54.015Z,53.60
2022-11-30T16:56:20.898Z,53.85
2022-11-30T16:58:47.771Z,56.08
2022-11-30T17:01:33.384Z,55.10
2022-11-30T17:04:10.438Z,55.97
2022-11-30T17:06:37.403Z,53.33
2022-11-30T17:09:04.854Z,59.22
2022-11-30T17:11:38.129Z,53.78
2022-11-30T17:14:05.400Z,52.03
2022-11-30T17:16:33.108Z,59.40
2022-11-30T17:19:00.098Z,55.13
2022-11-30T17:21:30.217Z,57.25
2022-11-30T17:23:57.631Z,57.78
2022-11-30T17:26:24.953Z,56.45
2022-11-30T17:28:51.872Z,57.97
2022-11-30T17:31:19.545Z,57.30
2022-11-30T17:33:48.577Z,75.40
2022-11-30T17:36:16.450Z,59.58
2022-11-30T17:38:44.298Z,59.53
2022-11-30T17:41:19.105Z,59.70
2022-11-30T17:43:47.573Z,59.63
2022-11-30T17:46:17.061Z,57.47
2022-11-30T17:48:44.928Z,56.35
2022-11-30T17:51:12.904Z,57.20
2022-11-30T17:53:40.979Z,57.10
2022-11-30T17:56:09.266Z,56.53
2022-11-30T17:58:43.855Z,63.55
2022-11-30T18:01:29.828Z,59.28
2022-11-30T18:03:57.026Z,59.20
2022-11-30T18:06:24.376Z,60.83
2022-11-30T18:08:51.320Z,60.28
2022-11-30T18:11:20.571Z,61.28
2022-11-30T18:13:49.953Z,66.70
2022-11-30T18:16:19.374Z,66.10
2022-11-30T18:18:48.504Z,64.57
2022-11-30T18:21:19.114Z,64.60
2022-11-30T18:23:46.639Z,59.63
2022-11-30T18:26:16.935Z,66.07
2022-11-30T18:28:44.190Z,65.95
2022-11-30T18:31:11.307Z,69.25
2022-11-30T18:33:38.896Z,67.07
2022-11-30T18:36:07.782Z,64.68
2022-11-30T18:38:38.292Z,64.87
2022-11-30T18:41:05.986Z,62.42
2022-11-30T18:43:34.049Z,66.75
2022-11-30T18:46:06.495Z,66.97
2022-11-30T18:48:33.979Z,67.50
2022-11-30T18:51:16.083Z,73.53
2022-11-30T18:53:43.537Z,74.03
2022-11-30T18:56:20.927Z,67.05
2022-11-30T18:58:48.387Z,66.88
2022-11-30T19:01:18.854Z,69.78
2022-11-30T19:03:53.844Z,71.45
2022-11-30T19:06:20.894Z,66.88
2022-11-30T19:08:48.470Z,72.00
2022-11-30T19:11:17.344Z,63.72
2022-11-30T19:13:45.209Z,66.68
2022-11-30T19:16:15.824Z,59.38
2022-11-30T19:18:45.139Z,71.18
2022-11-30T19:21:14.751Z,67.75
2022-11-30T19:23:42.005Z,66.13
2022-11-30T19:26:10.285Z,63.08
2022-11-30T19:28:38.895Z,60.03
2022-11-30T19:31:11.664Z,57.97
2022-11-30T19:33:40.067Z,61.13
2022-11-30T19:36:10.168Z,66.37
2022-11-30T19:38:36.824Z,60.83
2022-11-30T19:41:11.608Z,66.10
2022-11-30T19:43:38.788Z,62.38
2022-11-30T19:46:07.890Z,66.03
2022-11-30T19:48:35.289Z,57.60
2022-11-30T19:51:17.946Z,64.47
2022-11-30T19:53:45.606Z,59.03
2022-11-30T19:56:15.604Z,63.75
2022-11-30T19:58:43.880Z,61.33
2022-11-30T20:01:15.009Z,63.25
2022-11-30T20:03:42.342Z,68.70
2022-11-30T20:06:08.946Z,60.40
2022-11-30T20:08:38.337Z,64.75
2022-11-30T20:11:09.460Z,62.40
2022-11-30T20:13:36.223Z,58.65
2022-11-30T20:16:11.497Z,62.97
2022-11-30T20:18:42.726Z,58.27
2022-11-30T20:21:18.873Z,58.80
2022-11-30T20:23:47.269Z,58.30
2022-11-30T20:26:23.614Z,56.13
2022-11-30T20:28:51.285Z,58.40
2022-11-30T20:31:19.979Z,57.53
2022-11-30T20:33:47.204Z,60.17
2022-11-30T20:36:15.853Z,58.35
2022-11-30T20:38:42.874Z,56.95
2022-11-30T20:41:14.996Z,58.85
2022-11-30T20:43:43.522Z,57.63
2022-11-30T20:46:16.174Z,56.70
2022-11-30T20:48:43.333Z,55.35
2022-11-30T20:51:30.239Z,59.97
2022-11-30T20:53:59.626Z,64.87
2022-11-30T20:56:26.226Z,58.95
2022-11-30T20:58:52.800Z,58.67
2022-11-30T21:01:21.863Z,56.25
2022-11-30T21:03:48.740Z,58.78
2022-11-30T21:06:15.587Z,56.85
2022-11-30T21:08:42.486Z,54.93
2022-11-30T21:11:18.138Z,60.90
2022-11-30T21:13:46.512Z,57.60
2022-11-30T21:16:15.067Z,64.93
2022-11-30T21:18:44.104Z,54.20
2022-11-30T21:21:17.045Z,66.22
2022-11-30T21:23:45.133Z,56.17
2022-11-30T21:26:31.277Z,56.15
2022-11-30T21:29:03.795Z,62.72
2022-11-30T21:31:31.253Z,60.67
2022-11-30T21:33:58.250Z,58.55
2022-11-30T21:36:24.974Z,60.13
2022-11-30T21:39:05.572Z,61.03
2022-11-30T21:41:38.218Z,64.55
2022-11-30T21:44:06.112Z,60.42
2022-11-30T21:46:32.914Z,66.60
2022-11-30T21:49:00.100Z,60.50
2022-11-30T21:51:28.301Z,67.93
2022-11-30T21:53:58.655Z,68.55
2022-11-30T21:56:27.583Z,66.70
2022-11-30T21:58:54.483Z,66.82
2022-11-30T22:01:36.408Z,75.28
2022-11-30T22:04:05.278Z,70.88
2022-11-30T22:06:33.928Z,73.28
2022-11-30T22:09:03.494Z,71.10
2022-11-30T22:11:31.016Z,77.13
2022-11-30T22:13:57.705Z,71.65
2022-11-30T22:16:29.916Z,66.40
2022-11-30T22:19:01.073Z,68.88
2022-11-30T22:21:29.850Z,72.00
2022-11-30T22:24:01.636Z,65.18
2022-11-30T22:26:30.428Z,80.72
2022-11-30T22:28:59.757Z,85.72
2022-11-30T22:31:32.182Z,73.03
2022-11-30T22:33:59.016Z,71.90
2022-11-30T22:36:28.344Z,72.78
2022-11-30T22:38:57.044Z,76.22
2022-11-30T22:41:24.754Z,70.70
2022-11-30T22:43:51.951Z,92.72
2022-11-30T22:46:30.242Z,88.15
2022-11-30T22:49:01.883Z,77.63
2022-11-30T22:51:30.138Z,84.90
2022-11-30T22:53:57.701Z,81.97
2022-11-30T22:56:26.714Z,75.95
2022-11-30T22:58:55.620Z,72.40
2022-11-30T23:01:27.724Z,76.27
2022-11-30T23:03:56.344Z,69.55
2022-11-30T23:06:24.241Z,76.47
2022-11-30T23:08:52.324Z,76.57
2022-11-30T23:11:22.267Z,74.80
2022-11-30T23:13:49.205Z,66.80
2022-11-30T23:16:16.328Z,64.10
2022-11-30T23:18:48.420Z,79.03
2022-11-30T23:21:21.419Z,82.20
2022-11-30T23:23:48.533Z,78.40
2022-11-30T23:26:23.734Z,86.97
2022-11-30T23:28:52.005Z,76.63
2022-11-30T23:31:32.433Z,79.07
2022-11-30T23:34:01.942Z,75.20
2022-11-30T23:36:28.567Z,84.00
2022-11-30T23:39:01.222Z,78.80
2022-11-30T23:41:28.201Z,79.72
2022-11-30T23:43:55.221Z,74.17
2022-11-30T23:46:22.081Z,74.28
2022-11-30T23:48:49.024Z,76.28
2022-11-30T23:51:15.625Z,79.70
2022-11-30T23:53:42.566Z,80.53
2022-11-30T23:56:12.880Z,76.07
2022-11-30T23:58:42.206Z,82.10
